Time;durP1;ratioP1;P1;durP2;ratioP2;P2;SDS_P1;SDS_P2;PMS_P1;PMS_P2;Temp;Humidity;BMP_temperature;BMP_pressure;BME280_temperature;BME280_humidity;BME280_pressure;Samples;Min_cycle;Max_cycle;Signal;HPM_P1;HPM_P2
2024/01/31 00:01:55;;;;;;;35.30;19.60;;;;;;;3.16;79.43;101948.55;105398;1256;81697;-46
2024/01/31 00:04:23;;;;;;;33.50;19.90;;;;;;;3.21;79.16;101946.21;105387;1255;71368;-46
2024/01/31 00:06:52;;;;;;;31.60;19.50;;;;;;;3.33;79.68;101942.30;105402;1257;69944;-47
2024/01/31 00:09:20;;;;;;;35.90;18.80;;;;;;;3.50;79.83;101945.70;105452;1256;70021;-46
2024/01/31 00:11:48;;;;;;;36.80;20.00;;;;;;;3.64;79.70;101948.85;105494;1253;73581;-46
2024/01/31 00:14:18;;;;;;;37.60;21.80;;;;;;;3.81;79.85;101954.31;105466;1257;82610;-47
2024/01/31 00:16:46;;;;;;;35.10;20.00;;;;;;;3.96;79.93;101945.89;105466;1253;71761;-47
2024/01/31 00:19:14;;;;;;;36.50;20.00;;;;;;;4.10;79.62;101946.63;105416;1254;70012;-47
2024/01/31 00:21:42;;;;;;;34.20;19.60;;;;;;;4.24;79.49;101943.19;105464;1257;69998;-47
2024/01/31 00:24:11;;;;;;;36.60;20.20;;;;;;;4.38;79.18;101942.67;105455;1253;72887;-46
2024/01/31 00:26:39;;;;;;;32.40;18.50;;;;;;;4.48;79.14;101948.52;105420;1256;81614;-47
2024/01/31 00:29:07;;;;;;;32.70;18.80;;;;;;;4.55;78.87;101944.98;105500;1253;72977;-46
2024/01/31 00:31:35;;;;;;;31.80;18.50;;;;;;;4.61;78.67;101941.41;105416;1256;70631;-47
2024/01/31 00:34:04;;;;;;;33.00;19.50;;;;;;;4.66;78.58;101940.96;105431;1253;70019;-47
2024/01/31 00:36:32;;;;;;;29.20;18.00;;;;;;;4.73;78.55;101941.04;105423;1253;72750;-47
2024/01/31 00:39:01;;;;;;;34.90;19.40;;;;;;;4.79;78.51;101942.84;105494;1253;81500;-46
2024/01/31 00:41:30;;;;;;;32.10;18.30;;;;;;;4.83;78.39;101940.64;105540;1254;73132;-46
2024/01/31 00:43:58;;;;;;;30.60;18.20;;;;;;;4.87;78.19;101947.95;105504;1253;69926;-48
2024/01/31 00:46:27;;;;;;;33.00;19.50;;;;;;;4.89;78.13;101945.04;105565;1256;69929;-48
2024/01/31 00:48:55;;;;;;;29.00;17.70;;;;;;;4.91;78.14;101953.38;105544;1253;73233;-49
2024/01/31 00:51:24;;;;;;;29.90;19.10;;;;;;;4.91;78.02;101951.98;105442;1253;82109;-51
2024/01/31 00:53:52;;;;;;;31.50;18.80;;;;;;;4.92;78.01;101951.30;105418;1253;71776;-48
2024/01/31 00:56:20;;;;;;;31.50;18.80;;;;;;;4.94;77.98;101956.52;105389;1253;70048;-49
2024/01/31 00:58:48;;;;;;;31.50;18.70;;;;;;;4.96;78.08;101952.55;105411;1257;69944;-50
2024/01/31 01:01:16;;;;;;;31.40;17.60;;;;;;;4.98;78.19;101960.73;105507;1257;73144;-48
2024/01/31 01:03:44;;;;;;;30.30;18.20;;;;;;;5.02;78.11;101955.56;105457;1256;82873;-48
2024/01/31 01:06:13;;;;;;;25.90;16.90;;;;;;;5.06;78.20;101961.15;105530;1253;71761;-50
2024/01/31 01:08:41;;;;;;;27.20;16.30;;;;;;;5.11;78.20;101963.09;105498;1253;69882;-49
2024/01/31 01:11:10;;;;;;;25.60;15.60;;;;;;;5.14;78.27;101965.92;105465;1257;71576;-50
2024/01/31 01:13:38;;;;;;;28.30;16.70;;;;;;;5.19;78.29;101961.46;105524;1258;73503;-49
2024/01/31 01:16:06;;;;;;;26.20;16.50;;;;;;;5.24;78.33;101961.86;105468;1257;83166;-49
2024/01/31 01:18:35;;;;;;;27.20;15.80;;;;;;;5.28;78.39;101959.46;105432;1253;72221;-48
2024/01/31 01:21:04;;;;;;;24.90;15.70;;;;;;;5.33;78.40;101958.66;105415;1257;69959;-48
2024/01/31 01:23:32;;;;;;;23.20;15.50;;;;;;;5.38;78.36;101957.30;105472;1253;69997;-49
2024/01/31 01:26:00;;;;;;;26.20;15.00;;;;;;;5.42;78.33;101954.92;105438;1258;71819;-48
2024/01/31 01:28:29;;;;;;;23.30;13.90;;;;;;;5.47;78.44;101958.79;105541;1257;81814;-48
2024/01/31 01:30:57;;;;;;;23.90;14.00;;;;;;;5.54;78.53;101955.20;105478;1253;71713;-49
2024/01/31 01:33:26;;;;;;;22.80;14.40;;;;;;;5.60;78.30;101951.96;105431;1253;69992;-49
2024/01/31 01:35:54;;;;;;;28.80;15.00;;;;;;;5.64;78.18;101956.15;105495;1257;70003;-48
2024/01/31 01:38:22;;;;;;;25.50;15.70;;;;;;;5.66;78.22;101957.91;105437;1253;74812;-48
2024/01/31 01:40:51;;;;;;;26.10;15.60;;;;;;;5.66;78.02;101960.52;105441;1257;83175;-48
2024/01/31 01:43:20;;;;;;;23.00;15.00;;;;;;;5.66;77.92;101963.27;105398;1253;71899;-49
2024/01/31 01:45:51;;;;;;;21.30;14.30;;;;;;;5.66;77.94;101956.69;105442;1256;69949;-48
2024/01/31 01:48:19;;;;;;;24.90;15.40;;;;;;;5.67;77.89;101952.88;105489;1253;70083;-49
2024/01/31 01:50:47;;;;;;;23.50;14.20;;;;;;;5.67;78.05;101949.41;105437;1253;72726;-49
2024/01/31 01:53:15;;;;;;;23.30;14.10;;;;;;;5.66;77.77;101949.92;105499;1256;82005;-49
2024/01/31 01:55:44;;;;;;;21.80;13.60;;;;;;;5.66;77.99;101941.60;105405;1253;70239;-49
2024/01/31 01:58:12;;;;;;;24.40;14.10;;;;;;;5.67;78.02;101933.98;105409;1257;69999;-49
2024/01/31 02:00:43;;;;;;;23.10;14.40;;;;;;;5.66;77.97;101928.08;105481;1253;70008;-49
2024/01/31 02:03:12;;;;;;;27.20;13.30;;;;;;;5.64;77.93;101926.49;105422;1253;72671;-49
2024/01/31 02:05:44;;;;;;;23.50;13.30;;;;;;;5.63;77.87;101935.86;105451;1253;81616;-48
2024/01/31 02:08:13;;;;;;;21.90;13.50;;;;;;;5.62;77.90;101938.79;105463;1253;71532;-48
2024/01/31 02:10:41;;;;;;;19.60;13.70;;;;;;;5.59;77.92;101935.83;105474;1259;70019;-48
2024/01/31 02:13:09;;;;;;;22.00;13.40;;;;;;;5.56;77.91;101935.27;105515;1253;69923;-48
2024/01/31 02:15:38;;;;;;;22.40;14.30;;;;;;;5.52;77.97;101932.13;105507;1253;72949;-49
2024/01/31 02:18:06;;;;;;;23.40;13.90;;;;;;;5.48;77.92;101932.61;105458;1257;81761;-54
2024/01/31 02:20:34;;;;;;;19.80;13.20;;;;;;;5.48;78.09;101936.77;105505;1253;71636;-52
2024/01/31 02:23:03;;;;;;;23.80;14.40;;;;;;;5.48;78.13;101940.75;105531;1258;69952;-49
2024/01/31 02:25:31;;;;;;;19.20;13.40;;;;;;;5.48;78.26;101936.93;105500;1257;69984;-47
2024/01/31 02:28:00;;;;;;;20.00;12.70;;;;;;;5.48;78.33;101938.16;105528;1253;74619;-47
2024/01/31 02:30:28;;;;;;;19.80;12.70;;;;;;;5.49;78.37;101935.04;105433;1256;82776;-47
2024/01/31 02:32:56;;;;;;;20.50;13.70;;;;;;;5.51;78.43;101938.52;105396;1253;72646;-47
2024/01/31 02:35:25;;;;;;;23.30;13.30;;;;;;;5.54;78.63;101939.77;105489;1257;70006;-48
2024/01/31 02:37:53;;;;;;;21.10;12.10;;;;;;;5.58;78.81;101939.62;105436;1257;70038;-47
2024/01/31 02:40:22;;;;;;;24.00;12.90;;;;;;;5.62;78.90;101944.86;105405;1253;72221;-48
2024/01/31 02:42:50;;;;;;;18.70;12.60;;;;;;;5.65;78.76;101942.11;105553;1258;81464;-46
2024/01/31 02:45:18;;;;;;;20.40;12.90;;;;;;;5.69;78.99;101947.00;105392;1253;70445;-47
2024/01/31 02:47:47;;;;;;;19.40;12.70;;;;;;;5.77;78.96;101949.67;105554;1253;69969;-47
2024/01/31 02:50:15;;;;;;;19.10;12.20;;;;;;;5.83;78.92;101949.02;105490;1253;69924;-48
2024/01/31 02:52:44;;;;;;;17.70;12.00;;;;;;;5.91;79.18;101948.73;105526;1257;74205;-48
2024/01/31 02:55:12;;;;;;;25.00;12.20;;;;;;;6.01;79.56;101943.45;105496;1253;82637;-48
2024/01/31 02:57:40;;;;;;;20.50;12.30;;;;;;;6.11;79.50;101937.79;105551;1253;72010;-47
2024/01/31 03:00:11;;;;;;;19.90;12.80;;;;;;;6.21;79.64;101945.13;105423;1258;69985;-48
2024/01/31 03:02:44;;;;;;;22.90;12.70;;;;;;;6.30;79.51;101947.44;105444;1257;70134;-48
2024/01/31 03:05:12;;;;;;;20.90;12.40;;;;;;;6.39;79.48;101950.79;105446;1253;74797;-48
2024/01/31 03:07:41;;;;;;;19.20;12.60;;;;;;;6.47;79.31;101952.04;105448;1257;82137;-49
2024/01/31 03:10:09;;;;;;;21.70;12.60;;;;;;;6.54;79.43;101954.15;105464;1258;72262;-49
2024/01/31 03:12:38;;;;;;;23.80;13.00;;;;;;;6.61;79.36;101948.80;105457;1253;69917;-48
2024/01/31 03:15:07;;;;;;;19.90;13.40;;;;;;;6.66;79.12;101949.16;105440;1256;70024;-49
2024/01/31 03:17:36;;;;;;;20.30;12.60;;;;;;;6.70;79.11;101946.05;105484;1253;74665;-48
2024/01/31 03:20:05;;;;;;;20.60;12.10;;;;;;;6.74;78.80;101945.89;105496;1258;82048;-51
2024/01/31 03:22:34;;;;;;;18.80;12.20;;;;;;;6.77;79.02;101944.17;105461;1253;72134;-51
2024/01/31 03:25:04;;;;;;;19.60;12.00;;;;;;;6.81;78.96;101947.31;105468;1253;70055;-48
2024/01/31 03:27:33;;;;;;;19.70;10.90;;;;;;;6.86;79.02;101949.23;105440;1253;69895;-49
2024/01/31 03:30:02;;;;;;;19.40;12.40;;;;;;;6.88;78.91;101947.16;105464;1253;73256;-50
2024/01/31 03:32:37;;;;;;;20.20;11.80;;;;;;;6.91;78.79;101945.60;105448;1258;82654;-49
2024/01/31 03:35:06;;;;;;;18.60;11.80;;;;;;;6.94;78.74;101942.14;105435;1253;72427;-49
2024/01/31 03:37:35;;;;;;;21.20;11.80;;;;;;;6.96;78.66;101941.63;105463;1254;69963;-50
2024/01/31 03:40:08;;;;;;;19.20;12.00;;;;;;;6.98;78.62;101943.02;105447;1258;70016;-50
2024/01/31 03:42:37;;;;;;;17.40;11.30;;;;;;;7.01;78.94;101945.45;105504;1257;72070;-51
2024/01/31 03:45:05;;;;;;;17.00;11.70;;;;;;;7.03;78.73;101944.23;105506;1256;81798;-51
2024/01/31 03:47:34;;;;;;;18.50;11.50;;;;;;;7.06;79.01;101945.12;105476;1256;71557;-50
2024/01/31 03:50:06;;;;;;;19.40;11.90;;;;;;;7.08;78.81;101946.86;105447;1253;69996;-49
2024/01/31 03:52:35;;;;;;;19.00;11.60;;;;;;;7.09;78.83;101944.07;105570;1258;69935;-50
2024/01/31 03:55:04;;;;;;;;;;;;;;;7.11;78.86;101937.82;105516;1257;73028;-50
2024/01/31 03:57:33;;;;;;;17.70;10.80;;;;;;;7.11;78.89;101935.90;105549;1258;81462;-50
2024/01/31 04:00:09;;;;;;;18.90;10.50;;;;;;;7.12;79.01;101935.05;105487;1253;72181;-49
2024/01/31 04:02:38;;;;;;;19.20;11.00;;;;;;;7.13;78.73;101945.48;105441;1253;69987;-49
2024/01/31 04:05:10;;;;;;;17.90;11.00;;;;;;;7.13;78.69;101947.23;105568;1257;69989;-50
2024/01/31 04:07:39;;;;;;;18.70;12.10;;;;;;;7.15;78.65;101947.58;105446;1253;73325;-49
2024/01/31 04:10:11;;;;;;;17.70;11.50;;;;;;;7.16;78.81;101944.27;105413;1258;81723;-51
2024/01/31 04:12:40;;;;;;;16.80;10.90;;;;;;;7.18;78.69;101945.84;105402;1253;71840;-49
2024/01/31 04:15:08;;;;;;;20.00;12.10;;;;;;;7.20;78.72;101949.48;105415;1254;69927;-49
2024/01/31 04:17:37;;;;;;;18.20;11.70;;;;;;;7.20;78.48;101952.10;105475;1258;69885;-49
2024/01/31 04:20:06;;;;;;;19.60;12.00;;;;;;;7.21;78.68;101950.55;105392;1257;74233;-52
2024/01/31 04:22:34;;;;;;;18.00;11.40;;;;;;;7.20;78.66;101949.31;105463;1256;82237;-50
2024/01/31 04:25:04;;;;;;;21.00;11.20;;;;;;;7.19;78.77;101952.96;105430;1257;73036;-48
2024/01/31 04:27:32;;;;;;;22.30;12.80;;;;;;;7.17;78.47;101953.65;105442;1253;69957;-47
2024/01/31 04:30:00;;;;;;;21.10;12.10;;;;;;;7.14;78.51;101954.17;105571;1253;69934;-47
2024/01/31 04:32:29;;;;;;;19.00;11.30;;;;;;;7.11;78.34;101951.90;105616;1253;73186;-48
2024/01/31 04:34:57;;;;;;;18.00;11.90;;;;;;;7.05;78.19;101956.59;105450;1256;81535;-48
2024/01/31 04:37:25;;;;;;;20.20;12.50;;;;;;;7.01;78.17;101957.27;105464;1257;72071;-47
2024/01/31 04:39:54;;;;;;;20.20;12.70;;;;;;;6.97;78.07;101958.82;105482;1253;69919;-47
2024/01/31 04:42:22;;;;;;;19.20;12.20;;;;;;;6.91;78.16;101962.46;105440;1253;69987;-47
2024/01/31 04:44:50;;;;;;;18.10;12.10;;;;;;;6.85;78.10;101960.35;105466;1257;73497;-47
2024/01/31 04:47:18;;;;;;;18.80;12.30;;;;;;;6.80;77.99;101968.85;105389;1253;82228;-46
2024/01/31 04:49:46;;;;;;;20.00;12.00;;;;;;;6.77;78.10;101969.18;105324;1253;71857;-47
2024/01/31 04:52:14;;;;;;;19.70;11.90;;;;;;;6.74;78.28;101973.35;105424;1257;70344;-48
2024/01/31 04:54:43;;;;;;;19.00;12.20;;;;;;;6.71;78.45;101968.81;105440;1253;69883;-46
2024/01/31 04:57:11;;;;;;;18.70;12.80;;;;;;;6.69;78.57;101972.11;105345;1253;72097;-47
2024/01/31 04:59:39;;;;;;;20.70;12.10;;;;;;;6.67;78.57;101968.98;105445;1259;81461;-47
2024/01/31 05:02:07;;;;;;;19.20;12.10;;;;;;;6.65;78.61;101969.66;105498;1256;72040;-47
2024/01/31 05:04:36;;;;;;;18.10;12.10;;;;;;;6.64;78.67;101971.91;105472;1254;70025;-47
2024/01/31 05:07:05;;;;;;;17.30;11.90;;;;;;;6.62;78.85;101971.39;105523;1256;70645;-47
2024/01/31 05:09:34;;;;;;;19.40;11.90;;;;;;;6.60;78.91;101965.30;105506;1253;73200;-47
2024/01/31 05:12:03;;;;;;;22.50;12.30;;;;;;;6.59;78.65;101962.52;105507;1253;82033;-47
2024/01/31 05:14:31;;;;;;;19.90;12.50;;;;;;;6.56;78.99;101963.36;105465;1253;73719;-47
2024/01/31 05:16:59;;;;;;;21.20;12.90;;;;;;;6.54;78.99;101968.23;105422;1254;69956;-47
2024/01/31 05:19:28;;;;;;;17.70;12.40;;;;;;;6.53;79.25;101967.35;105453;1258;69980;-47
2024/01/31 05:21:58;;;;;;;22.00;13.90;;;;;;;6.51;79.39;101970.98;105535;1254;72895;-48
2024/01/31 05:24:27;;;;;;;20.10;12.30;;;;;;;6.49;79.25;101972.55;105577;1254;82870;-48
2024/01/31 05:26:56;;;;;;;22.80;13.10;;;;;;;6.47;79.35;101973.74;105481;1253;71847;-48
2024/01/31 05:29:24;;;;;;;20.20;12.80;;;;;;;6.45;79.47;101968.52;105560;1257;69889;-49
2024/01/31 05:31:52;;;;;;;20.00;12.30;;;;;;;6.45;79.54;101971.12;105471;1257;70667;-48
2024/01/31 05:34:22;;;;;;;20.10;12.70;;;;;;;6.43;79.50;101971.82;105541;1253;73886;-52
2024/01/31 05:36:51;;;;;;;22.40;13.30;;;;;;;6.41;79.69;101974.59;105529;1253;82725;-49
2024/01/31 05:39:19;;;;;;;26.70;16.40;;;;;;;6.40;79.54;101977.00;105476;1256;71679;-49
2024/01/31 05:41:47;;;;;;;40.10;23.60;;;;;;;6.39;79.74;101974.92;105442;1257;70013;-50
2024/01/31 05:44:16;;;;;;;37.50;21.70;;;;;;;6.38;79.77;101972.65;105517;1253;69862;-49
2024/01/31 05:46:44;;;;;;;29.80;16.40;;;;;;;6.36;79.81;101976.27;105505;1253;73052;-49
2024/01/31 05:49:13;;;;;;;31.70;20.20;;;;;;;6.36;80.03;101978.38;105462;1259;81725;-50
2024/01/31 05:51:42;;;;;;;32.80;19.20;;;;;;;6.36;80.14;101980.98;105464;1253;70678;-49
2024/01/31 05:54:10;;;;;;;36.20;17.70;;;;;;;6.37;80.22;101979.08;105486;1255;69923;-49
2024/01/31 05:56:38;;;;;;;33.40;18.70;;;;;;;6.39;80.05;101978.39;105529;1257;70015;-48
2024/01/31 05:59:08;;;;;;;32.60;15.90;;;;;;;6.40;80.24;101981.35;105482;1253;73341;-50
2024/01/31 06:01:36;;;;;;;24.60;14.20;;;;;;;6.43;80.41;101979.11;105492;1255;81865;-49
2024/01/31 06:04:06;;;;;;;24.30;14.50;;;;;;;6.43;80.48;101983.80;105479;1253;71626;-49
2024/01/31 06:06:35;;;;;;;26.80;14.50;;;;;;;6.46;80.28;101987.80;105522;1257;69948;-49
2024/01/31 06:09:05;;;;;;;26.90;14.80;;;;;;;6.47;80.33;101986.42;105411;1257;70582;-49
2024/01/31 06:11:34;;;;;;;24.60;14.60;;;;;;;6.47;80.26;101989.90;105535;1253;74008;-48
2024/01/31 06:14:02;;;;;;;24.00;15.10;;;;;;;6.48;80.47;101989.20;105482;1257;81692;-49
2024/01/31 06:16:32;;;;;;;23.90;14.20;;;;;;;6.48;80.40;101990.93;105434;1253;71710;-48
2024/01/31 06:19:01;;;;;;;24.40;14.60;;;;;;;6.49;80.45;101997.38;105423;1257;69953;-49
2024/01/31 06:21:30;;;;;;;22.90;13.20;;;;;;;6.50;80.37;102000.32;105541;1253;69961;-50
2024/01/31 06:23:59;;;;;;;23.10;13.40;;;;;;;6.50;80.46;102001.55;105479;1256;73629;-49
2024/01/31 06:26:28;;;;;;;24.90;15.20;;;;;;;6.50;80.62;102002.75;105496;1257;83183;-50
2024/01/31 06:28:56;;;;;;;21.40;13.60;;;;;;;6.49;80.24;102005.72;105483;1256;72105;-50
2024/01/31 06:31:27;;;;;;;22.50;13.80;;;;;;;6.48;80.50;102006.74;105469;1258;69977;-49
2024/01/31 06:33:56;;;;;;;22.00;13.80;;;;;;;6.47;80.87;102007.60;105505;1256;69990;-50
2024/01/31 06:36:24;;;;;;;22.90;13.90;;;;;;;6.48;80.75;102011.25;105429;1259;74191;-49
2024/01/31 06:38:52;;;;;;;21.60;13.30;;;;;;;6.48;80.57;102008.13;105460;1257;81409;-48
2024/01/31 06:41:20;;;;;;;25.40;14.60;;;;;;;6.47;80.70;102010.39;105801;1258;71334;-48
2024/01/31 06:43:49;;;;;;;21.20;13.90;;;;;;;6.47;80.76;102012.64;105605;1254;70044;-47
2024/01/31 06:46:18;;;;;;;23.40;13.70;;;;;;;6.46;80.73;102015.08;105634;1257;69840;-48
2024/01/31 06:48:46;;;;;;;23.00;14.40;;;;;;;6.47;80.83;102019.59;105612;1257;74379;-48
2024/01/31 06:51:15;;;;;;;25.10;14.60;;;;;;;6.47;80.99;102018.20;105532;1257;83234;-48
2024/01/31 06:53:44;;;;;;;21.90;14.70;;;;;;;6.46;80.74;102022.36;105518;1259;72080;-47
2024/01/31 06:56:17;;;;;;;21.50;13.80;;;;;;;6.46;80.99;102016.63;105594;1253;69977;-48
2024/01/31 06:58:48;;;;;;;30.40;14.90;;;;;;;6.45;80.89;102024.44;105557;1257;70011;-48
2024/01/31 07:01:20;;;;;;;21.70;13.30;;;;;;;6.46;80.94;102023.77;105611;1257;74393;-47
2024/01/31 07:03:49;;;;;;;22.80;14.20;;;;;;;6.47;80.92;102026.18;105589;1259;82900;-48
2024/01/31 07:06:18;;;;;;;21.30;13.60;;;;;;;6.48;81.24;102026.36;105674;1253;71840;-48
2024/01/31 07:08:46;;;;;;;26.20;15.90;;;;;;;6.49;81.17;102025.34;105545;1256;69953;-49
2024/01/31 07:11:15;;;;;;;23.60;15.00;;;;;;;6.49;81.17;102029.84;105600;1257;70022;-48
2024/01/31 07:13:43;;;;;;;23.10;13.80;;;;;;;6.49;81.33;102029.67;105580;1253;73294;-48
2024/01/31 07:16:12;;;;;;;23.50;14.60;;;;;;;6.50;81.00;102031.42;105505;1253;81417;-47
2024/01/31 07:18:41;;;;;;;22.30;14.40;;;;;;;6.49;81.23;102030.55;105601;1256;72306;-48
2024/01/31 07:21:10;;;;;;;22.20;14.20;;;;;;;6.47;81.30;102033.48;105621;1253;69986;-47
2024/01/31 07:23:42;;;;;;;21.80;14.10;;;;;;;6.45;81.27;102037.10;105537;1253;70001;-47
2024/01/31 07:26:20;;;;;;;24.10;14.30;;;;;;;6.44;81.39;102035.71;105641;1256;74351;-48
2024/01/31 07:28:50;;;;;;;23.30;13.70;;;;;;;6.45;81.51;102039.02;105561;1253;81583;-47
2024/01/31 07:31:19;;;;;;;21.30;12.90;;;;;;;6.47;81.63;102041.12;105526;1259;72837;-47
2024/01/31 07:33:47;;;;;;;22.80;13.60;;;;;;;6.48;81.52;102045.12;105595;1259;69901;-50
2024/01/31 07:36:15;;;;;;;20.10;13.10;;;;;;;6.52;81.80;102048.09;105639;1256;69919;-47
2024/01/31 07:38:45;;;;;;;20.20;13.60;;;;;;;6.55;81.76;102052.10;105635;1256;73308;-48
2024/01/31 07:41:14;;;;;;;23.80;14.10;;;;;;;6.57;81.56;102056.64;105648;1257;81671;-47
2024/01/31 07:43:42;;;;;;;18.60;12.80;;;;;;;6.59;81.49;102058.73;105594;1253;70731;-48
2024/01/31 07:46:11;;;;;;;21.60;13.20;;;;;;;6.60;81.52;102062.91;105511;1259;70009;-48
2024/01/31 07:48:40;;;;;;;20.30;12.60;;;;;;;6.63;81.76;102066.75;105619;1257;69989;-48
2024/01/31 07:51:08;;;;;;;21.10;13.40;;;;;;;6.64;81.82;102065.88;105476;1258;73319;-49
2024/01/31 07:53:37;;;;;;;21.10;12.70;;;;;;;6.65;81.49;102068.52;105511;1256;80480;-47
2024/01/31 07:56:06;;;;;;;19.50;12.40;;;;;;;6.66;81.66;102069.72;105568;1257;73189;-48
2024/01/31 07:58:35;;;;;;;19.30;12.70;;;;;;;6.68;81.80;102067.13;105523;1259;69918;-47
2024/01/31 08:01:03;;;;;;;21.10;12.20;;;;;;;6.69;81.66;102071.65;105513;1257;70101;-50
2024/01/31 08:03:34;;;;;;;20.80;12.80;;;;;;;6.71;81.40;102071.84;105485;1253;74114;-49
2024/01/31 08:06:05;;;;;;;19.90;13.20;;;;;;;6.71;81.41;102068.53;105564;1257;81942;-52
2024/01/31 08:08:36;;;;;;;20.20;11.90;;;;;;;6.71;81.48;102071.30;105476;1253;74400;-50
2024/01/31 08:11:04;;;;;;;21.60;13.10;;;;;;;6.72;81.81;102074.27;105457;1258;70537;-49
2024/01/31 08:13:33;;;;;;;18.50;12.20;;;;;;;6.73;81.35;102077.06;105443;1257;70368;-51
2024/01/31 08:16:01;;;;;;;22.40;12.30;;;;;;;6.74;81.90;102072.73;105636;1257;73488;-47
2024/01/31 08:18:30;;;;;;;19.30;11.90;;;;;;;6.75;81.56;102078.11;105574;1257;82833;-48
2024/01/31 08:20:58;;;;;;;19.60;11.80;;;;;;;6.76;81.42;102076.38;105494;1257;73486;-48
2024/01/31 08:23:27;;;;;;;17.40;12.00;;;;;;;6.77;81.63;102077.09;105683;1252;69825;-47
2024/01/31 08:25:55;;;;;;;20.00;13.10;;;;;;;6.77;81.56;102078.30;105532;1258;69865;-51
2024/01/31 08:28:24;;;;;;;21.50;12.50;;;;;;;6.78;81.45;102080.38;105645;1258;72930;-47
2024/01/31 08:30:52;;;;;;;18.00;12.10;;;;;;;6.80;81.45;102084.91;105537;1258;81346;-47
2024/01/31 08:33:20;;;;;;;19.50;11.90;;;;;;;6.84;81.74;102085.64;105602;1259;71802;-49
2024/01/31 08:35:49;;;;;;;15.40;11.00;;;;;;;6.89;81.45;102082.70;105771;1257;69982;-48
2024/01/31 08:38:18;;;;;;;17.80;11.60;;;;;;;6.94;81.57;102079.59;105549;1256;69974;-47
2024/01/31 08:40:46;;;;;;;18.00;11.90;;;;;;;7.00;81.85;102079.27;105734;1257;72859;-47
2024/01/31 08:43:14;;;;;;;18.60;11.70;;;;;;;7.02;81.75;102081.38;105517;1258;81557;-48
2024/01/31 08:45:43;;;;;;;21.20;12.40;;;;;;;7.07;82.12;102088.70;105664;1259;73040;-48
2024/01/31 08:48:11;;;;;;;18.40;12.40;;;;;;;7.09;81.77;102094.61;105499;1266;70021;-48
2024/01/31 08:50:39;;;;;;;18.70;11.20;;;;;;;7.09;81.84;102098.42;105487;1255;69997;-49
2024/01/31 08:53:07;;;;;;;17.70;11.10;;;;;;;7.10;81.68;102098.45;105668;1257;74000;-48
2024/01/31 08:55:36;;;;;;;20.20;11.90;;;;;;;7.12;81.53;102097.58;105687;1256;82817;-49
2024/01/31 08:58:05;;;;;;;21.60;11.60;;;;;;;7.15;81.57;102094.13;105591;1259;71733;-51
2024/01/31 09:00:33;;;;;;;20.10;11.10;;;;;;;7.18;81.59;102093.61;105487;1267;70017;-50
2024/01/31 09:03:03;;;;;;;20.60;13.20;;;;;;;7.23;81.61;102096.58;105457;1256;69910;-48
2024/01/31 09:05:32;;;;;;;16.20;11.20;;;;;;;7.25;81.72;102100.06;105607;1253;74282;-49
2024/01/31 09:08:01;;;;;;;16.10;11.80;;;;;;;7.22;81.62;102099.36;105529;1257;81652;-49
2024/01/31 09:10:29;;;;;;;21.60;14.70;;;;;;;7.20;81.71;102098.84;105579;1258;71901;-48
2024/01/31 09:12:57;;;;;;;36.60;23.90;;;;;;;7.18;81.98;102100.05;105654;1256;69954;-47
2024/01/31 09:15:26;;;;;;;23.10;11.90;;;;;;;7.17;81.80;102096.21;105546;1266;69930;-47
2024/01/31 09:17:54;;;;;;;16.10;10.80;;;;;;;7.13;81.90;102100.55;105668;1259;74227;-47
2024/01/31 09:20:22;;;;;;;25.30;16.30;;;;;;;7.13;82.23;102105.41;105587;1259;82722;-47
2024/01/31 09:22:51;;;;;;;15.70;9.60;;;;;;;7.12;81.88;102105.94;105516;1257;71411;-52
2024/01/31 09:25:19;;;;;;;14.40;8.50;;;;;;;7.10;81.89;102105.23;105501;1264;70019;-47
2024/01/31 09:27:48;;;;;;;18.70;11.70;;;;;;;7.08;82.01;102111.82;105509;1266;69986;-47
2024/01/31 09:30:16;;;;;;;16.50;10.60;;;;;;;7.06;82.00;102109.72;105483;1257;73182;-48
2024/01/31 09:32:45;;;;;;;13.90;9.70;;;;;;;7.04;81.64;102107.11;105623;1259;82110;-51
2024/01/31 09:35:13;;;;;;;19.90;10.00;;;;;;;7.03;82.11;102106.23;105460;1257;71327;-48
2024/01/31 09:37:41;;;;;;;14.40;10.20;;;;;;;7.05;82.01;102099.28;105583;1255;69852;-47
2024/01/31 09:40:15;;;;;;;16.40;8.70;;;;;;;7.07;81.98;102103.48;105944;1256;70021;-48
2024/01/31 09:42:44;;;;;;;10.10;7.10;;;;;;;7.06;81.84;102106.23;105588;1260;74381;-48
2024/01/31 09:45:13;;;;;;;16.00;8.10;;;;;;;7.08;81.84;102101.56;105655;1257;81991;-48
2024/01/31 09:47:45;;;;;;;11.70;6.60;;;;;;;7.09;81.83;102099.48;105354;1259;72966;-47
2024/01/31 09:50:13;;;;;;;10.90;5.90;;;;;;;7.12;81.87;102098.98;105542;1257;70303;-47
2024/01/31 09:52:42;;;;;;;13.10;8.00;;;;;;;7.17;82.07;102095.17;105532;1258;69941;-48
2024/01/31 09:55:11;;;;;;;10.40;6.60;;;;;;;7.21;81.72;102094.84;105593;1256;72962;-47
2024/01/31 09:57:41;;;;;;;11.40;7.50;;;;;;;7.24;81.74;102092.59;105663;1257;82030;-48
2024/01/31 10:00:10;;;;;;;;;;;;;;;7.29;82.03;102091.05;105638;1255;71673;-48
2024/01/31 10:02:42;;;;;;;10.40;6.50;;;;;;;7.35;82.00;102088.81;105643;1255;69980;-50
2024/01/31 10:05:10;;;;;;;9.60;6.50;;;;;;;7.41;81.91;102088.65;105620;1255;69892;-50
2024/01/31 10:07:39;;;;;;;11.00;6.80;;;;;;;7.45;81.55;102085.70;105585;1258;71876;-48
2024/01/31 10:10:08;;;;;;;9.50;6.10;;;;;;;7.52;81.86;102082.94;105571;1258;81746;-47
2024/01/31 10:12:38;;;;;;;10.30;6.20;;;;;;;7.60;81.70;102079.48;105608;1256;73515;-48
2024/01/31 10:15:10;;;;;;;9.60;6.70;;;;;;;7.69;81.50;102078.10;105597;1258;69915;-48
2024/01/31 10:17:38;;;;;;;11.70;7.20;;;;;;;7.77;81.36;102076.02;105559;1257;70019;-48
2024/01/31 10:20:10;;;;;;;9.00;5.80;;;;;;;7.83;81.38;102069.95;105510;1255;73225;-51
2024/01/31 10:22:41;;;;;;;10.70;6.00;;;;;;;7.87;80.95;102073.09;105570;1266;81450;-50
2024/01/31 10:25:15;;;;;;;10.90;6.20;;;;;;;7.90;80.87;102073.43;105493;1254;70927;-50
2024/01/31 10:27:47;;;;;;;9.00;7.20;;;;;;;7.91;80.62;102074.65;105506;1257;69873;-49
2024/01/31 10:30:15;;;;;;;10.00;6.40;;;;;;;7.92;80.69;102073.27;105403;1258;69992;-50
2024/01/31 10:32:45;;;;;;;10.20;6.90;;;;;;;7.96;80.69;102068.39;105508;1256;72232;-50
2024/01/31 10:35:15;;;;;;;17.50;9.60;;;;;;;7.98;80.52;102067.86;105501;1254;84053;-51
2024/01/31 10:37:46;;;;;;;22.70;11.40;;;;;;;7.97;80.33;102056.39;104996;1273;70789;-50
2024/01/31 10:40:27;;;;;;;22.80;13.50;;;;;;;8.00;80.47;102054.98;104961;1263;70035;-51
2024/01/31 10:42:57;;;;;;;12.20;8.30;;;;;;;8.03;80.57;102051.85;105017;1266;70030;-51
2024/01/31 10:45:26;;;;;;;11.10;7.20;;;;;;;7.99;80.12;102046.80;105024;1266;73101;-50
2024/01/31 10:47:54;;;;;;;9.50;7.00;;;;;;;7.95;79.94;102052.21;105032;1264;80834;-49
2024/01/31 10:50:23;;;;;;;10.30;7.20;;;;;;;7.93;80.12;102047.51;105021;1260;72982;-50
2024/01/31 10:52:53;;;;;;;17.70;10.00;;;;;;;7.95;80.11;102045.77;104957;1264;70002;-50
2024/01/31 10:55:22;;;;;;;17.10;10.00;;;;;;;7.94;80.06;102040.89;104918;1266;69974;-50
2024/01/31 10:57:50;;;;;;;12.60;6.80;;;;;;;7.97;80.26;102043.15;105481;1254;73480;-49
2024/01/31 11:00:25;;;;;;;14.30;8.30;;;;;;;7.94;80.09;102039.85;105476;1257;82006;-51
2024/01/31 11:02:56;;;;;;;11.40;5.80;;;;;;;7.91;79.93;102037.76;105464;1253;71991;-51
2024/01/31 11:05:31;;;;;;;8.90;5.80;;;;;;;7.88;79.83;102038.27;105460;1253;70096;-52
2024/01/31 11:08:01;;;;;;;10.60;6.40;;;;;;;7.82;79.69;102037.05;105464;1254;70011;-49
2024/01/31 11:10:30;;;;;;;8.60;6.00;;;;;;;7.77;79.84;102039.13;105483;1257;71771;-49
2024/01/31 11:13:04;;;;;;;7.50;4.90;;;;;;;7.74;79.73;102032.17;105460;1257;80705;-49
2024/01/31 11:15:36;;;;;;;9.00;5.60;;;;;;;7.72;79.91;102025.73;105453;1257;70890;-49
2024/01/31 11:18:11;;;;;;;16.00;10.80;;;;;;;7.72;79.95;102023.65;105444;1260;69989;-50
2024/01/31 11:20:46;;;;;;;7.90;5.40;;;;;;;7.73;79.89;102026.79;105470;1254;69866;-49